Time;durP1;ratioP1;P1;durP2;ratioP2;P2;SDS_P1;SDS_P2;PMS_P1;PMS_P2;Temp;Humidity;BMP_temperature;BMP_pressure;BME280_temperature;BME280_humidity;BME280_pressure;Samples;Min_cycle;Max_cycle;Signal;HPM_P1;HPM_P2
2023/09/19 00:01:12;;;;;;;10.60;2.40;;;13.20;80.90;;;;;;5034577;28;20040;-66
2023/09/19 00:03:38;;;;;;;12.10;2.60;;;13.20;81.10;;;;;;5050374;28;20049;-64
2023/09/19 00:06:05;;;;;;;14.25;2.63;;;13.10;81.20;;;;;;5050301;28;20048;-65
2023/09/19 00:08:34;;;;;;;14.88;2.30;;;13.10;81.30;;;;;;5058030;28;20037;-66
2023/09/19 00:11:05;;;;;;;14.13;2.47;;;13.10;81.30;;;;;;5050528;28;20063;-67
2023/09/19 00:13:36;;;;;;;;;;;13.00;81.60;;;;;;5050670;28;20063;-64
2023/09/19 00:16:07;;;;;;;14.02;2.38;;;13.00;82.30;;;;;;5040981;28;19928;-67
2023/09/19 00:18:34;;;;;;;13.77;3.35;;;13.00;82.10;;;;;;5042312;28;20453;-67
2023/09/19 00:21:01;;;;;;;16.95;2.72;;;13.00;82.20;;;;;;5029810;28;20100;-65
2023/09/19 00:23:28;;;;;;;14.55;2.88;;;13.00;82.10;;;;;;5043042;28;20037;-65
2023/09/19 00:25:58;;;;;;;15.35;3.03;;;13.10;82.20;;;;;;5034792;28;20423;-65
2023/09/19 00:28:23;;;;;;;11.55;3.00;;;13.10;82.30;;;;;;5048334;28;20053;-64
2023/09/19 00:30:55;;;;;;;9.07;2.53;;;13.10;82.40;;;;;;5049989;28;20466;-66
2023/09/19 00:33:20;;;;;;;;;;;13.10;82.40;;;;;;5050681;28;20053;-66
2023/09/19 00:35:51;;;;;;;14.00;2.28;;;13.10;82.60;;;;;;5049595;28;20308;-66
2023/09/19 00:38:19;;;;;;;14.07;3.10;;;13.10;82.20;;;;;;5050307;28;20135;-64
2023/09/19 00:40:45;;;;;;;14.02;2.60;;;13.20;81.90;;;;;;5049944;28;20049;-67
2023/09/19 00:43:11;;;;;;;14.40;2.88;;;13.20;81.80;;;;;;5048806;28;20053;-66
2023/09/19 00:45:38;;;;;;;10.65;2.90;;;13.30;81.60;;;;;;5048068;28;20045;-67
2023/09/19 00:48:08;;;;;;;12.25;2.55;;;13.30;81.40;;;;;;5049189;28;20055;-65
2023/09/19 00:50:35;;;;;;;14.23;2.58;;;13.20;81.10;;;;;;5041770;28;20100;-65
2023/09/19 00:53:07;;;;;;;15.85;2.72;;;13.20;80.90;;;;;;5027736;28;20081;-66
2023/09/19 00:55:34;;;;;;;13.63;3.05;;;13.30;80.80;;;;;;5050074;28;20049;-65
2023/09/19 00:58:00;;;;;;;12.52;2.53;;;13.30;80.70;;;;;;5027933;28;20513;-66
2023/09/19 01:00:27;;;;;;;15.30;3.05;;;13.30;80.40;;;;;;5037725;28;20041;-66
2023/09/19 01:02:53;;;;;;;15.40;2.88;;;13.30;80.50;;;;;;5048436;28;20499;-66
2023/09/19 01:05:19;;;;;;;12.85;2.67;;;13.30;80.30;;;;;;5048313;28;20087;-65
2023/09/19 01:07:45;;;;;;;11.48;2.67;;;13.30;80.20;;;;;;5018696;28;20080;-66
2023/09/19 01:10:14;;;;;;;9.40;2.78;;;13.20;80.10;;;;;;5049907;28;20041;-66
2023/09/19 01:13:00;;;;;;;15.07;3.05;;;13.10;80.00;;;;;;5049762;28;20084;-66
2023/09/19 01:15:36;;;;;;;12.52;2.45;;;13.10;79.90;;;;;;5047800;28;20065;-66
2023/09/19 01:18:20;;;;;;;11.57;2.55;;;13.10;80.00;;;;;;5036447;28;20049;-66
2023/09/19 01:20:49;;;;;;;13.75;3.00;;;13.10;79.90;;;;;;5047770;28;20088;-64
2023/09/19 01:23:47;;;;;;;11.32;2.75;;;13.00;79.80;;;;;;5047603;28;20446;-66
2023/09/19 01:26:49;;;;;;;11.45;2.70;;;13.00;79.70;;;;;;5032193;28;20045;-67
2023/09/19 01:29:34;;;;;;;12.88;2.80;;;12.90;79.90;;;;;;5039640;28;20472;-65
2023/09/19 01:32:04;;;;;;;11.25;2.80;;;12.80;79.90;;;;;;5028392;28;20125;-67
2023/09/19 01:34:50;;;;;;;12.88;2.85;;;12.80;80.00;;;;;;5039698;28;20144;-66
2023/09/19 01:37:19;;;;;;;9.52;2.80;;;12.70;80.00;;;;;;5047678;28;20084;-66
2023/09/19 01:39:54;;;;;;;13.35;2.75;;;12.70;79.90;;;;;;5017157;28;20041;-65
2023/09/19 01:42:42;;;;;;;13.68;3.03;;;12.60;80.00;;;;;;5048215;28;20124;-66
2023/09/19 01:45:18;;;;;;;13.40;3.05;;;12.50;80.00;;;;;;5049816;28;20053;-67
2023/09/19 01:47:57;;;;;;;12.75;2.92;;;12.50;79.90;;;;;;5049223;28;20049;-67
2023/09/19 01:50:44;;;;;;;11.73;2.80;;;12.50;79.70;;;;;;5049535;28;20045;-65
2023/09/19 01:53:25;;;;;;;13.15;2.58;;;12.50;79.70;;;;;;5031222;28;20121;-65
2023/09/19 01:55:51;;;;;;;14.30;2.65;;;12.50;79.60;;;;;;5041603;28;20483;-64
2023/09/19 01:58:27;;;;;;;11.57;2.80;;;12.50;79.60;;;;;;5032688;28;20049;-66
2023/09/19 02:00:56;;;;;;;13.63;2.60;;;12.50;79.30;;;;;;5040149;28;20469;-65
2023/09/19 02:03:24;;;;;;;16.42;2.53;;;12.40;79.30;;;;;;5028391;28;20625;-65
2023/09/19 02:05:53;;;;;;;15.10;2.83;;;12.40;79.10;;;;;;5028549;28;20445;-65
2023/09/19 02:08:23;;;;;;;12.32;2.78;;;12.40;79.00;;;;;;5038495;28;20053;-65
2023/09/19 02:10:49;;;;;;;10.07;2.10;;;12.50;78.70;;;;;;5048660;28;20049;-66
2023/09/19 02:13:19;;;;;;;9.82;2.35;;;12.40;78.70;;;;;;5033285;28;20083;-65
2023/09/19 02:15:46;;;;;;;16.63;3.22;;;12.40;78.70;;;;;;5052275;28;20072;-65
2023/09/19 02:18:12;;;;;;;11.25;2.45;;;12.30;78.60;;;;;;5051081;28;20049;-66
2023/09/19 02:20:38;;;;;;;10.82;2.45;;;12.40;78.50;;;;;;5051859;28;20544;-66
2023/09/19 02:23:05;;;;;;;11.38;2.55;;;12.40;78.60;;;;;;5024255;28;20407;-66
2023/09/19 02:25:31;;;;;;;13.75;2.75;;;12.40;78.50;;;;;;5050435;28;20480;-65
2023/09/19 02:27:58;;;;;;;11.60;2.50;;;12.40;78.40;;;;;;5041029;28;20063;-66
2023/09/19 02:30:25;;;;;;;13.82;2.70;;;12.30;78.40;;;;;;5052224;28;20412;-65
2023/09/19 02:32:51;;;;;;;11.73;2.90;;;12.30;78.50;;;;;;5052114;28;20464;-67
2023/09/19 02:38:58;;;;;;;14.20;2.85;;;12.30;78.60;;;;;;5023356;22;20048;-64
2023/09/19 02:41:23;;;;;;;11.85;2.65;;;12.20;78.70;;;;;;5009726;28;20392;-65
2023/09/19 02:43:49;;;;;;;8.25;2.67;;;12.20;78.70;;;;;;5018557;28;20081;-65
2023/09/19 02:46:17;;;;;;;12.05;2.80;;;12.20;78.70;;;;;;5028148;28;20124;-65
2023/09/19 02:48:42;;;;;;;11.68;2.53;;;12.20;78.70;;;;;;5012806;28;20097;-65
2023/09/19 02:51:08;;;;;;;8.85;2.35;;;12.20;78.70;;;;;;4997045;28;20054;-67
2023/09/19 02:53:34;;;;;;;16.30;2.47;;;12.10;78.70;;;;;;5010729;28;20099;-66
2023/09/19 02:56:01;;;;;;;11.82;2.63;;;12.10;78.70;;;;;;5003552;28;20045;-66
2023/09/19 02:58:27;;;;;;;13.07;2.60;;;12.20;78.70;;;;;;5003188;28;20046;-65
2023/09/19 03:00:54;;;;;;;10.90;2.28;;;12.20;78.60;;;;;;5024544;28;20049;-67
2023/09/19 03:03:20;;;;;;;11.07;2.42;;;12.20;78.70;;;;;;5012011;28;20053;-66
2023/09/19 03:05:47;;;;;;;12.35;2.42;;;12.20;78.80;;;;;;5012253;28;20111;-66
2023/09/19 03:08:14;;;;;;;8.55;2.35;;;12.30;78.60;;;;;;5011972;28;20492;-66
2023/09/19 03:10:40;;;;;;;12.32;2.35;;;12.30;78.70;;;;;;5014293;28;20079;-66
2023/09/19 03:13:09;;;;;;;12.70;2.50;;;12.30;78.80;;;;;;4999133;28;20485;-66
2023/09/19 03:15:38;;;;;;;9.90;2.50;;;12.30;78.60;;;;;;5014998;28;20505;-65
2023/09/19 03:18:04;;;;;;;9.98;2.58;;;12.30;78.70;;;;;;5006256;28;20049;-66
2023/09/19 03:20:30;;;;;;;11.57;2.40;;;12.30;78.70;;;;;;5012109;28;20069;-63
2023/09/19 03:22:57;;;;;;;11.82;2.67;;;12.30;78.70;;;;;;5011048;28;20050;-67
2023/09/19 03:25:22;;;;;;;8.90;1.90;;;12.30;78.70;;;;;;5004084;28;20050;-66
2023/09/19 03:27:48;;;;;;;12.52;2.40;;;12.20;78.80;;;;;;5007105;28;20366;-66
2023/09/19 03:30:14;;;;;;;9.30;2.25;;;12.20;78.90;;;;;;5011253;28;20390;-66
2023/09/19 03:32:49;;;;;;;10.93;2.33;;;12.20;78.80;;;;;;5007920;28;20046;-68
2023/09/19 03:35:16;;;;;;;12.07;2.53;;;12.10;78.70;;;;;;5006697;28;20092;-65
2023/09/19 03:37:42;;;;;;;8.35;2.22;;;12.10;79.00;;;;;;5011655;28;20045;-65
2023/09/19 03:40:10;;;;;;;14.50;2.70;;;12.10;79.20;;;;;;5011910;28;20046;-66
2023/09/19 03:42:39;;;;;;;15.23;2.30;;;12.00;79.30;;;;;;5011521;28;20045;-66
2023/09/19 03:45:06;;;;;;;14.13;2.30;;;11.90;79.30;;;;;;5011335;28;20058;-65
2023/09/19 03:47:33;;;;;;;10.30;2.83;;;11.90;79.30;;;;;;5010008;28;20112;-65
2023/09/19 03:49:58;;;;;;;12.30;2.83;;;11.90;79.50;;;;;;5012563;28;20081;-66
2023/09/19 03:52:24;;;;;;;11.65;2.63;;;11.70;79.50;;;;;;4997622;28;20085;-67
2023/09/19 03:54:50;;;;;;;10.25;2.58;;;11.70;79.60;;;;;;5010945;28;20125;-66
2023/09/19 03:57:20;;;;;;;11.00;2.55;;;11.70;79.60;;;;;;5011787;28;20453;-66
2023/09/19 03:59:46;;;;;;;8.35;2.03;;;11.60;79.80;;;;;;4995335;28;20457;-65
2023/09/19 04:02:21;;;;;;;14.45;2.80;;;11.50;79.80;;;;;;5003964;28;20137;-67
2023/09/19 04:04:48;;;;;;;12.73;2.80;;;11.50;79.80;;;;;;5009666;28;20045;-67
2023/09/19 04:07:14;;;;;;;12.52;2.63;;;11.50;80.00;;;;;;5009831;28;20540;-67
2023/09/19 04:09:40;;;;;;;13.20;2.47;;;11.50;80.10;;;;;;5007930;28;20113;-67
2023/09/19 04:12:08;;;;;;;12.85;2.70;;;11.50;80.10;;;;;;5007886;28;20571;-67
2023/09/19 04:14:34;;;;;;;14.82;2.50;;;11.60;80.20;;;;;;5010503;28;20519;-67
2023/09/19 04:17:00;;;;;;;15.35;2.88;;;11.60;80.20;;;;;;5007154;28;20081;-66
2023/09/19 04:19:26;;;;;;;8.48;2.42;;;11.70;80.40;;;;;;4991027;28;20077;-65
2023/09/19 04:21:55;;;;;;;15.70;2.95;;;11.70;80.40;;;;;;4994883;28;20134;-65
2023/09/19 04:24:20;;;;;;;10.65;2.70;;;11.70;80.30;;;;;;5008984;28;20129;-64
2023/09/19 04:26:46;;;;;;;9.93;2.55;;;11.70;80.30;;;;;;5004797;28;20105;-66
2023/09/19 04:29:13;;;;;;;10.70;2.47;;;11.70;80.50;;;;;;5005630;28;20471;-67
2023/09/19 04:31:40;;;;;;;15.98;3.03;;;11.70;80.60;;;;;;5008980;28;20288;-67
2023/09/19 04:34:06;;;;;;;13.35;2.65;;;11.70;80.70;;;;;;5005483;28;20069;-66
2023/09/19 04:36:32;;;;;;;14.82;2.95;;;11.70;80.80;;;;;;5002499;28;20647;-66
2023/09/19 04:38:57;;;;;;;14.23;2.83;;;11.70;80.90;;;;;;5007327;28;20049;-67
2023/09/19 04:41:24;;;;;;;10.07;2.75;;;11.70;80.90;;;;;;5005384;28;20543;-66
2023/09/19 04:43:50;;;;;;;17.17;2.67;;;11.70;81.00;;;;;;5008196;28;20050;-68
2023/09/19 04:46:17;;;;;;;8.23;2.85;;;11.70;81.00;;;;;;4984259;28;20752;-67
2023/09/19 04:48:43;;;;;;;12.43;2.83;;;11.70;81.00;;;;;;5008161;28;20145;-67
2023/09/19 04:51:10;;;;;;;11.05;3.03;;;11.70;81.20;;;;;;5006073;28;20046;-67
2023/09/19 04:53:36;;;;;;;8.93;2.75;;;11.70;81.20;;;;;;4987973;28;20050;-66
2023/09/19 04:56:03;;;;;;;15.70;2.95;;;11.70;81.40;;;;;;5008235;28;20049;-67
2023/09/19 04:58:29;;;;;;;12.43;2.35;;;11.80;81.40;;;;;;5009567;28;20041;-66
2023/09/19 05:00:54;;;;;;;13.07;3.22;;;11.80;81.40;;;;;;5007032;28;20052;-66
2023/09/19 05:03:20;;;;;;;14.00;2.58;;;11.90;81.50;;;;;;5007528;28;20451;-65
2023/09/19 05:05:46;;;;;;;14.10;3.05;;;11.90;81.70;;;;;;5003882;28;20053;-65
2023/09/19 05:08:14;;;;;;;11.98;2.78;;;11.90;81.80;;;;;;5005454;28;20095;-66
2023/09/19 05:10:40;;;;;;;11.32;2.95;;;11.90;81.80;;;;;;5008786;28;20116;-64
2023/09/19 05:13:07;;;;;;;11.95;3.17;;;12.00;81.70;;;;;;5009339;28;20050;-67
2023/09/19 05:15:33;;;;;;;13.98;2.50;;;12.00;81.70;;;;;;5002677;28;20054;-66
2023/09/19 05:17:59;;;;;;;14.02;2.53;;;12.00;81.70;;;;;;5005823;28;20481;-65
2023/09/19 05:20:29;;;;;;;12.88;3.00;;;12.00;81.60;;;;;;5006715;28;20112;-67
2023/09/19 05:23:13;;;;;;;12.20;3.00;;;12.10;81.50;;;;;;4986949;28;20096;-65
2023/09/19 05:25:39;;;;;;;10.57;2.60;;;12.10;81.70;;;;;;5001823;28;20413;-66
2023/09/19 05:28:06;;;;;;;8.88;2.50;;;12.10;81.70;;;;;;5004986;28;20080;-67
2023/09/19 05:30:32;;;;;;;15.23;3.00;;;12.20;81.70;;;;;;4989784;28;20088;-66
2023/09/19 05:32:58;;;;;;;12.35;2.78;;;12.20;81.80;;;;;;5010993;28;20121;-67
2023/09/19 05:35:26;;;;;;;12.70;2.72;;;12.30;81.80;;;;;;5003568;28;20125;-65
2023/09/19 05:37:52;;;;;;;11.02;2.90;;;12.30;81.80;;;;;;5004431;28;20104;-66
2023/09/19 05:40:19;;;;;;;11.52;2.67;;;12.30;81.70;;;;;;4985736;28;20050;-66
2023/09/19 05:42:45;;;;;;;9.32;2.92;;;12.30;81.80;;;;;;5007557;28;20092;-65
2023/09/19 05:45:12;;;;;;;9.45;2.67;;;12.30;81.60;;;;;;5011719;28;20560;-68
2023/09/19 05:47:40;;;;;;;11.30;2.83;;;12.40;81.50;;;;;;5010379;28;20052;-66
2023/09/19 05:50:09;;;;;;;18.15;3.22;;;12.50;81.50;;;;;;5010442;28;20066;-66
2023/09/19 05:52:37;;;;;;;13.00;2.63;;;12.50;81.30;;;;;;5014199;28;20115;-65
2023/09/19 05:55:07;;;;;;;12.80;3.05;;;12.50;81.20;;;;;;5017336;28;20061;-67
2023/09/19 05:57:38;;;;;;;14.10;3.00;;;12.50;81.20;;;;;;5011515;28;20058;-65
2023/09/19 06:00:09;;;;;;;13.02;2.80;;;12.50;81.10;;;;;;4990558;28;20448;-68
2023/09/19 06:02:37;;;;;;;17.27;2.85;;;12.50;80.90;;;;;;5011684;28;20050;-65
2023/09/19 06:05:06;;;;;;;13.38;3.13;;;12.50;80.80;;;;;;4995082;28;20042;-66
2023/09/19 06:07:36;;;;;;;12.60;2.60;;;12.50;80.80;;;;;;5012427;28;20050;-65
2023/09/19 06:10:05;;;;;;;14.73;3.03;;;12.60;80.70;;;;;;5014606;28;20060;-66
2023/09/19 06:12:33;;;;;;;22.55;3.00;;;12.60;80.80;;;;;;5013593;28;20104;-67
2023/09/19 06:14:59;;;;;;;14.65;2.85;;;12.60;80.80;;;;;;5012643;28;20038;-66
2023/09/19 06:17:26;;;;;;;12.30;2.72;;;12.70;80.90;;;;;;5014829;28;20056;-66
2023/09/19 06:19:52;;;;;;;12.90;2.67;;;12.70;80.90;;;;;;5011343;28;20125;-67
2023/09/19 06:22:18;;;;;;;13.48;2.75;;;12.70;80.90;;;;;;4990241;28;20133;-66
2023/09/19 06:24:44;;;;;;;15.18;3.30;;;12.70;80.90;;;;;;5012480;28;20044;-67
2023/09/19 06:27:10;;;;;;;13.95;2.88;;;12.70;81.00;;;;;;5014657;28;20088;-67
2023/09/19 06:29:37;;;;;;;14.63;3.00;;;12.80;81.10;;;;;;5012051;28;20513;-65
2023/09/19 06:32:10;;;;;;;9.65;2.78;;;12.80;81.20;;;;;;5015123;28;20124;-66
2023/09/19 06:34:36;;;;;;;14.30;2.78;;;12.80;81.10;;;;;;5016813;28;20061;-65
2023/09/19 06:37:03;;;;;;;15.80;3.42;;;12.90;80.90;;;;;;4995765;28;20069;-66
2023/09/19 06:39:28;;;;;;;14.52;3.05;;;12.90;81.00;;;;;;5009861;28;20081;-67
2023/09/19 06:41:54;;;;;;;13.40;3.05;;;12.90;81.00;;;;;;5013937;28;20484;-66
2023/09/19 06:44:24;;;;;;;14.80;3.58;;;13.00;80.90;;;;;;5012547;28;20505;-66
2023/09/19 06:46:51;;;;;;;14.57;2.97;;;13.00;80.90;;;;;;5015754;28;20077;-66
2023/09/19 06:49:17;;;;;;;16.33;3.10;;;13.00;80.80;;;;;;5010014;28;20054;-65
2023/09/19 06:51:43;;;;;;;12.73;2.90;;;13.10;80.80;;;;;;5012969;28;20054;-66
2023/09/19 06:54:10;;;;;;;17.17;3.05;;;13.10;80.50;;;;;;5012229;28;20084;-66
2023/09/19 06:56:35;;;;;;;13.77;3.22;;;13.10;80.60;;;;;;5012596;28;20056;-66
2023/09/19 06:59:02;;;;;;;14.52;3.47;;;13.20;80.50;;;;;;5009192;28;20053;-66
2023/09/19 07:01:28;;;;;;;17.55;2.67;;;13.30;80.20;;;;;;5012823;28;20169;-65
2023/09/19 07:03:54;;;;;;;11.50;2.65;;;13.30;80.30;;;;;;5011719;28;20188;-66
2023/09/19 07:06:20;;;;;;;16.80;3.40;;;13.30;80.40;;;;;;5013605;28;20172;-66
2023/09/19 07:08:46;;;;;;;14.65;3.08;;;13.40;80.20;;;;;;5011201;28;20112;-66
2023/09/19 07:11:12;;;;;;;17.98;3.08;;;13.50;80.20;;;;;;4998609;28;20048;-66
2023/09/19 07:13:39;;;;;;;18.80;3.47;;;13.50;80.10;;;;;;5011075;28;20120;-66
2023/09/19 07:16:04;;;;;;;15.50;3.50;;;13.50;80.00;;;;;;5011163;28;20054;-66
2023/09/19 07:18:31;;;;;;;12.98;2.92;;;13.50;79.60;;;;;;5009915;28;20077;-66
2023/09/19 07:21:04;;;;;;;15.55;3.00;;;13.60;79.70;;;;;;5013790;28;20046;-68
2023/09/19 07:23:34;;;;;;;11.70;3.13;;;13.70;79.70;;;;;;5012544;28;20200;-66
2023/09/19 07:26:00;;;;;;;13.50;3.28;;;13.70;79.50;;;;;;5011383;28;20135;-68
2023/09/19 07:28:28;;;;;;;20.42;3.20;;;13.70;79.50;;;;;;5012377;28;20503;-68
2023/09/19 07:30:53;;;;;;;13.52;2.78;;;13.80;79.70;;;;;;5010980;28;20408;-66
2023/09/19 07:33:19;;;;;;;12.80;3.30;;;13.80;79.60;;;;;;5010791;28;20042;-66
2023/09/19 07:35:47;;;;;;;11.68;2.78;;;13.90;79.70;;;;;;5009483;28;20069;-66
2023/09/19 07:38:13;;;;;;;14.60;3.10;;;13.90;79.50;;;;;;5008241;28;20089;-67
2023/09/19 07:40:39;;;;;;;11.55;2.97;;;13.90;79.30;;;;;;5012666;28;20077;-67
2023/09/19 07:43:06;;;;;;;15.82;3.72;;;13.90;79.30;;;;;;5010318;28;20487;-64
2023/09/19 07:45:32;;;;;;;14.45;2.95;;;14.00;79.30;;;;;;5013666;28;20489;-67
2023/09/19 07:48:01;;;;;;;15.57;3.35;;;14.00;79.40;;;;;;5010309;28;20053;-66
2023/09/19 07:50:27;;;;;;;18.95;3.15;;;14.10;79.40;;;;;;5004947;28;20056;-67
2023/09/19 07:52:53;;;;;;;15.35;2.70;;;14.20;79.10;;;;;;4986657;28;20041;-66
2023/09/19 07:55:23;;;;;;;12.65;3.30;;;14.20;78.80;;;;;;4997211;28;20038;-67
2023/09/19 07:57:49;;;;;;;14.48;3.45;;;14.20;78.80;;;;;;5004152;28;20054;-66
2023/09/19 08:00:15;;;;;;;12.15;3.05;;;14.30;78.50;;;;;;5009610;28;20112;-67
2023/09/19 08:02:42;;;;;;;16.02;3.28;;;14.30;78.40;;;;;;4992089;28;20057;-67
2023/09/19 08:05:12;;;;;;;12.45;3.17;;;14.30;78.20;;;;;;5007546;28;20501;-67
2023/09/19 08:07:39;;;;;;;12.23;3.47;;;14.30;78.80;;;;;;5010754;28;20053;-67
2023/09/19 08:10:27;;;;;;;12.88;2.92;;;14.30;78.60;;;;;;5007382;28;20042;-65
2023/09/19 08:12:57;;;;;;;13.88;3.15;;;14.30;78.40;;;;;;5005492;28;20081;-65
2023/09/19 08:15:23;;;;;;;10.77;3.03;;;14.40;78.60;;;;;;5008267;28;20073;-69
2023/09/19 08:17:50;;;;;;;10.05;2.47;;;14.40;78.30;;;;;;4991956;28;20802;-68
2023/09/19 08:20:19;;;;;;;13.43;3.00;;;14.40;78.80;;;;;;4989574;28;20058;-65
2023/09/19 08:22:49;;;;;;;14.88;3.33;;;14.50;78.90;;;;;;5002569;28;20054;-65
2023/09/19 08:25:18;;;;;;;11.18;3.55;;;14.50;78.60;;;;;;4988525;28;20042;-68
2023/09/19 08:27:48;;;;;;;9.85;3.08;;;14.60;78.60;;;;;;5008526;28;20057;-65
2023/09/19 08:30:16;;;;;;;18.38;3.85;;;14.70;78.30;;;;;;5003478;28;20053;-65
2023/09/19 08:32:42;;;;;;;13.68;3.90;;;14.70;78.50;;;;;;5007391;28;20046;-66
2023/09/19 08:35:09;;;;;;;13.98;3.60;;;14.80;78.30;;;;;;5012390;28;20045;-65
2023/09/19 08:37:35;;;;;;;18.65;3.63;;;14.90;78.10;;;;;;5008894;28;20524;-66
2023/09/19 08:40:02;;;;;;;11.68;3.13;;;14.90;78.40;;;;;;5007041;28;20468;-66
2023/09/19 08:42:28;;;;;;;14.70;3.13;;;15.00;78.40;;;;;;5009297;28;20058;-64
2023/09/19 08:44:55;;;;;;;12.25;3.35;;;15.00;78.20;;;;;;5006898;28;20618;-67
2023/09/19 08:47:36;;;;;;;19.10;3.50;;;15.00;78.20;;;;;;5006327;28;20046;-65
2023/09/19 08:50:15;;;;;;;21.20;3.75;;;15.20;78.30;;;;;;5001876;28;20053;-66
2023/09/19 08:52:43;;;;;;;10.90;3.03;;;15.30;78.40;;;;;;5006497;28;20543;-67
2023/09/19 08:55:12;;;;;;;14.02;3.88;;;15.40;77.90;;;;;;5006383;28;20386;-67
2023/09/19 08:57:41;;;;;;;18.38;3.75;;;15.50;77.90;;;;;;5006554;28;20099;-68
2023/09/19 09:00:11;;;;;;;12.45;3.10;;;15.60;77.30;;;;;;5007531;28;20139;-68
2023/09/19 09:02:40;;;;;;;18.67;3.58;;;15.60;77.10;;;;;;4989468;28;20539;-66
2023/09/19 09:05:15;;;;;;;13.73;3.17;;;15.60;77.00;;;;;;5007714;28;20459;-67
2023/09/19 09:07:43;;;;;;;12.13;3.10;;;15.60;77.10;;;;;;5006579;28;20050;-65
2023/09/19 09:10:10;;;;;;;13.55;2.97;;;15.70;76.80;;;;;;5004088;28;20069;-66
2023/09/19 09:12:37;;;;;;;14.68;3.30;;;15.70;76.70;;;;;;5011091;28;20057;-66
2023/09/19 09:15:03;;;;;;;17.75;3.60;;;15.80;76.60;;;;;;5008437;28;20103;-65
2023/09/19 09:17:30;;;;;;;14.63;3.50;;;15.80;76.30;;;;;;5007353;28;20536;-66
2023/09/19 09:19:56;;;;;;;11.18;3.10;;;15.80;75.60;;;;;;5005774;28;20614;-66
2023/09/19 09:22:23;;;;;;;12.10;2.97;;;15.80;75.90;;;;;;5013568;28;20115;-66
2023/09/19 09:24:58;;;;;;;18.88;3.75;;;15.80;76.50;;;;;;5010676;28;20061;-65
2023/09/19 09:27:24;;;;;;;14.45;3.45;;;15.90;75.90;;;;;;5013590;28;20053;-66
2023/09/19 09:29:52;;;;;;;13.35;3.40;;;15.90;75.90;;;;;;5001389;28;20416;-65
2023/09/19 09:32:20;;;;;;;23.17;3.70;;;15.90;76.00;;;;;;5008646;28;20041;-68
2023/09/19 09:34:57;;;;;;;18.27;3.88;;;16.00;76.30;;;;;;5013530;28;20133;-66
2023/09/19 09:37:28;;;;;;;19.33;4.10;;;16.00;76.20;;;;;;5010196;28;20062;-67
2023/09/19 09:42:40;;;;;;;17.85;3.78;;;16.20;75.80;;;;;;5010672;28;20065;-66
2023/09/19 09:47:59;;;;;;;17.05;3.63;;;16.30;75.20;;;;;;5008076;28;20123;-65
2023/09/19 09:50:56;;;;;;;20.35;4.38;;;16.30;75.90;;;;;;5006206;28;20046;-66
2023/09/19 09:53:31;;;;;;;17.10;4.25;;;16.30;76.00;;;;;;5008623;28;20061;-66
2023/09/19 09:56:05;;;;;;;18.45;4.50;;;16.20;76.00;;;;;;5014299;28;20058;-65
2023/09/19 09:58:58;;;;;;;17.00;4.40;;;16.20;76.50;;;;;;5017028;28;20060;-65
2023/09/19 10:01:26;;;;;;;14.68;3.85;;;16.20;76.40;;;;;;5008843;28;20064;-66
2023/09/19 10:03:58;;;;;;;15.60;3.70;;;16.20;76.20;;;;;;5009678;28;20046;-66
2023/09/19 10:09:11;;;;;;;15.73;4.00;;;16.10;76.00;;;;;;5010555;28;20100;-67
2023/09/19 10:11:44;;;;;;;14.95;4.07;;;16.10;74.70;;;;;;5007284;28;20479;-65
2023/09/19 10:14:23;;;;;;;22.83;4.28;;;16.20;75.70;;;;;;4992837;28;20108;-66
2023/09/19 10:16:49;;;;;;;14.82;4.05;;;16.30;75.20;;;;;;5006300;28;20101;-66
2023/09/19 10:19:30;;;;;;;15.57;4.10;;;16.30;74.40;;;;;;5010225;28;20053;-66
2023/09/19 10:21:56;;;;;;;15.75;3.85;;;16.30;74.80;;;;;;5004498;28;20165;-68
2023/09/19 10:24:26;;;;;;;18.40;4.22;;;16.40;74.80;;;;;;5022259;28;20042;-65
2023/09/19 10:26:54;;;;;;;20.67;4.30;;;16.40;74.90;;;;;;5021104;28;20112;-65
2023/09/19 10:29:21;;;;;;;16.02;3.88;;;16.40;74.30;;;;;;5023016;28;20064;-66
2023/09/19 10:31:48;;;;;;;12.93;3.72;;;16.40;74.00;;;;;;5021804;28;20542;-65
2023/09/19 10:34:17;;;;;;;14.00;3.67;;;16.50;73.80;;;;;;5013490;28;20049;-66
2023/09/19 10:36:46;;;;;;;17.98;4.35;;;16.60;73.70;;;;;;4985451;28;20041;-64
2023/09/19 10:39:19;;;;;;;15.40;4.00;;;16.60;73.00;;;;;;4997452;28;20385;-67
2023/09/19 10:41:58;;;;;;;17.02;4.22;;;16.70;73.20;;;;;;5008557;28;20038;-64
2023/09/19 10:44:25;;;;;;;18.13;4.25;;;16.90;73.00;;;;;;5014508;28;20041;-66
2023/09/19 10:46:52;;;;;;;16.67;3.85;;;16.90;72.90;;;;;;5020349;28;20053;-66
2023/09/19 10:49:22;;;;;;;21.42;4.55;;;16.90;72.80;;;;;;5017119;28;20394;-65
2023/09/19 10:51:54;;;;;;;15.93;3.80;;;16.90;72.80;;;;;;5007105;28;20152;-65
2023/09/19 10:54:26;;;;;;;19.75;4.13;;;16.90;72.30;;;;;;5012598;28;20120;-66
2023/09/19 10:56:53;;;;;;;13.15;3.58;;;16.90;72.20;;;;;;4999098;28;20061;-65
2023/09/19 10:59:21;;;;;;;13.27;3.85;;;16.90;72.30;;;;;;5015875;28;20085;-66
2023/09/19 11:01:57;;;;;;;17.33;4.20;;;16.90;72.80;;;;;;4987779;28;20045;-66
2023/09/19 11:04:36;;;;;;;19.48;4.03;;;16.90;73.30;;;;;;5011168;28;20053;-68
2023/09/19 11:07:11;;;;;;;17.98;4.40;;;16.90;72.60;;;;;;5009404;28;20049;-69
2023/09/19 11:09:58;;;;;;;17.48;4.28;;;16.90;72.80;;;;;;5012990;28;20464;-66
2023/09/19 11:12:48;;;;;;;16.88;4.53;;;16.80;71.90;;;;;;5005091;28;20136;-67
2023/09/19 11:15:52;;;;;;;14.55;4.00;;;16.60;72.60;;;;;;4970787;28;20057;-67
2023/09/19 11:18:43;;;;;;;21.05;4.40;;;16.60;73.10;;;;;;5008972;28;20256;-65
2023/09/19 11:21:29;;;;;;;11.98;3.83;;;16.60;72.40;;;;;;5004706;28;20053;-65
2023/09/19 11:24:10;;;;;;;17.90;4.05;;;16.60;73.10;;;;;;5010567;28;20068;-67
2023/09/19 11:26:47;;;;;;;18.38;4.00;;;16.60;73.00;;;;;;5008974;28;20057;-67
2023/09/19 11:29:26;;;;;;;17.90;4.15;;;16.50;73.10;;;;;;5008795;28;20500;-65
2023/09/19 11:31:55;;;;;;;16.58;4.65;;;16.50;73.10;;;;;;5005674;28;20057;-66
2023/09/19 11:34:36;;;;;;;18.70;4.35;;;16.50;73.30;;;;;;5008808;28;20100;-65
2023/09/19 11:37:14;;;;;;;21.02;4.47;;;16.50;72.70;;;;;;5007067;28;20054;-65
2023/09/19 11:40:00;;;;;;;15.57;4.30;;;16.50;72.80;;;;;;5012667;28;20390;-66
2023/09/19 11:42:43;;;;;;;20.25;4.40;;;16.60;73.40;;;;;;5008310;28;20045;-65
2023/09/19 11:45:49;;;;;;;16.95;4.13;;;16.70;72.70;;;;;;5008842;28;20042;-67
2023/09/19 11:48:18;;;;;;;17.63;4.55;;;16.70;72.70;;;;;;5019953;28;20084;-66
2023/09/19 11:50:47;;;;;;;21.17;4.45;;;16.80;72.70;;;;;;5009287;28;20412;-66
2023/09/19 11:53:13;;;;;;;15.63;4.18;;;16.80;72.70;;;;;;5021423;28;20056;-69
2023/09/19 11:55:43;;;;;;;17.77;3.80;;;16.90;72.40;;;;;;5008561;28;20049;-67
2023/09/19 11:58:09;;;;;;;13.27;4.03;;;16.90;72.50;;;;;;4988608;28;20524;-67
2023/09/19 12:00:38;;;;;;;17.70;3.78;;;16.90;72.30;;;;;;5007237;28;20434;-68
2023/09/19 12:03:09;;;;;;;23.33;4.47;;;16.90;72.30;;;;;;5007132;28;20569;-66
2023/09/19 12:05:37;;;;;;;18.95;4.45;;;16.90;72.30;;;;;;5008206;28;20464;-66
2023/09/19 12:08:08;;;;;;;20.17;4.60;;;16.90;72.40;;;;;;5010612;28;20058;-64
2023/09/19 12:10:48;;;;;;;17.13;4.32;;;16.90;72.50;;;;;;5005103;28;20064;-65
2023/09/19 12:13:18;;;;;;;14.00;3.78;;;16.90;72.30;;;;;;5008467;28;20465;-65
2023/09/19 12:15:47;;;;;;;20.90;4.25;;;16.90;72.60;;;;;;5002395;28;20050;-68
2023/09/19 12:18:29;;;;;;;13.00;3.80;;;16.90;72.70;;;;;;4997988;28;20335;-65
2023/09/19 12:20:57;;;;;;;17.35;3.90;;;16.90;72.70;;;;;;5007277;28;20081;-65
2023/09/19 12:23:23;;;;;;;16.20;3.97;;;16.80;73.10;;;;;;5009321;28;20358;-66
2023/09/19 12:25:53;;;;;;;16.85;3.53;;;16.80;73.30;;;;;;5007640;28;20049;-66
2023/09/19 12:28:22;;;;;;;17.30;3.50;;;16.70;73.30;;;;;;5018031;28;20052;-66
2023/09/19 12:30:48;;;;;;;21.02;4.00;;;16.60;74.10;;;;;;5007481;28;20144;-67
2023/09/19 12:33:24;;;;;;;14.95;3.78;;;16.40;75.60;;;;;;5007599;28;20054;-66
2023/09/19 12:35:52;;;;;;;13.77;3.40;;;16.20;76.60;;;;;;5013696;28;20054;-65
2023/09/19 12:38:28;;;;;;;13.75;3.60;;;16.00;77.60;;;;;;5011314;28;20056;-64
2023/09/19 12:40:56;;;;;;;12.05;3.80;;;15.90;78.10;;;;;;5007516;28;20567;-65
2023/09/19 12:43:23;;;;;;;12.98;3.60;;;15.80;78.40;;;;;;5003007;28;20060;-66
2023/09/19 12:45:49;;;;;;;12.50;3.38;;;15.90;78.70;;;;;;5006162;28;20588;-65
2023/09/19 12:48:34;;;;;;;13.30;2.75;;;16.00;78.50;;;;;;5007539;28;20050;-64
2023/09/19 12:51:00;;;;;;;8.48;2.45;;;16.10;77.90;;;;;;5015052;28;20042;-65
2023/09/19 12:53:29;;;;;;;13.32;3.05;;;16.30;77.30;;;;;;5010570;28;20076;-66
2023/09/19 12:56:01;;;;;;;15.27;2.60;;;16.40;76.20;;;;;;5005306;28;20117;-67
2023/09/19 12:58:30;;;;;;;9.93;2.90;;;16.50;76.00;;;;;;5007641;28;20505;-66
2023/09/19 13:00:56;;;;;;;13.45;2.63;;;16.50;76.00;;;;;;4989477;28;20060;-65
2023/09/19 13:03:26;;;;;;;10.80;2.90;;;16.60;75.70;;;;;;4989694;28;20412;-65